Time;durP1;ratioP1;P1;durP2;ratioP2;P2;SDS_P1;SDS_P2;PMS_P1;PMS_P2;Temp;Humidity;BMP_temperature;BMP_pressure;BME280_temperature;BME280_humidity;BME280_pressure;Samples;Min_cycle;Max_cycle;Signal;HPM_P1;HPM_P2
2022/11/15 00:00:45;;;;;;;3.17;1.70;;;;;;;;;;5049943;28;20045;-44
2022/11/15 00:03:13;;;;;;;2.47;1.70;;;;;;;;;;5046226;28;20029;-45
2022/11/15 00:05:39;;;;;;;4.00;2.05;;;;;;;;;;5047658;28;20079;-43
2022/11/15 00:08:05;;;;;;;4.25;1.60;;;;;;;;;;5040988;28;20116;-44
2022/11/15 00:10:32;;;;;;;4.22;2.20;;;;;;;;;;5040103;28;20486;-49
2022/11/15 00:12:58;;;;;;;2.25;1.60;;;;;;;;;;5041207;28;20048;-44
2022/11/15 00:15:24;;;;;;;1.77;1.30;;;;;;;;;;5037752;28;20112;-44
2022/11/15 00:17:50;;;;;;;5.85;2.20;;;;;;;;;;5042509;28;20160;-44
2022/11/15 00:20:17;;;;;;;3.47;1.95;;;;;;;;;;5029275;28;20550;-44
2022/11/15 00:22:43;;;;;;;1.95;1.70;;;;;;;;;;5036086;28;20100;-45
2022/11/15 00:25:09;;;;;;;3.40;1.70;;;;;;;;;;5033253;28;20108;-45
2022/11/15 00:27:35;;;;;;;3.17;2.35;;;;;;;;;;5033005;28;20033;-45
2022/11/15 00:30:01;;;;;;;2.50;1.85;;;;;;;;;;5030879;28;20037;-44
2022/11/15 00:32:31;;;;;;;3.03;2.20;;;;;;;;;;5031939;28;20228;-44
2022/11/15 00:34:57;;;;;;;2.97;1.70;;;;;;;;;;5030799;28;20037;-44
2022/11/15 00:37:23;;;;;;;2.80;1.75;;;;;;;;;;5031901;28;20021;-43
2022/11/15 00:39:49;;;;;;;2.45;1.70;;;;;;;;;;5030350;28;20026;-44
2022/11/15 00:42:15;;;;;;;2.42;1.60;;;;;;;;;;5042706;28;20025;-44
2022/11/15 00:44:40;;;;;;;2.95;1.80;;;;;;;;;;5048926;28;20104;-44
2022/11/15 00:47:06;;;;;;;3.28;1.58;;;;;;;;;;5051516;28;20027;-44
2022/11/15 00:49:32;;;;;;;7.10;2.53;;;;;;;;;;5050816;28;20513;-49
2022/11/15 00:51:58;;;;;;;2.08;1.40;;;;;;;;;;5050435;28;20105;-44
2022/11/15 00:54:24;;;;;;;2.90;1.90;;;;;;;;;;5051417;28;20033;-44
2022/11/15 00:56:50;;;;;;;2.83;1.70;;;;;;;;;;5032232;28;20028;-44
2022/11/15 00:59:16;;;;;;;2.65;1.77;;;;;;;;;;5051179;28;20033;-44
2022/11/15 01:01:42;;;;;;;2.50;2.03;;;;;;;;;;5048923;28;20056;-44
2022/11/15 01:04:08;;;;;;;3.17;1.60;;;;;;;;;;5051001;28;20025;-44
2022/11/15 01:06:34;;;;;;;2.78;1.73;;;;;;;;;;5050228;28;20036;-45
2022/11/15 01:09:00;;;;;;;2.28;1.38;;;;;;;;;;5051449;28;20043;-44
2022/11/15 01:11:26;;;;;;;1.98;1.60;;;;;;;;;;5050726;28;20040;-44
2022/11/15 01:13:52;;;;;;;3.50;2.15;;;;;;;;;;5050450;28;20028;-44
2022/11/15 01:16:18;;;;;;;2.67;1.58;;;;;;;;;;5049547;28;20036;-45
2022/11/15 01:18:45;;;;;;;2.75;1.58;;;;;;;;;;5052547;28;20029;-45
2022/11/15 01:21:12;;;;;;;2.67;1.52;;;;;;;;;;5053759;28;20486;-44
2022/11/15 01:23:38;;;;;;;2.22;1.70;;;;;;;;;;5053775;28;20025;-45
2022/11/15 01:26:04;;;;;;;2.33;1.60;;;;;;;;;;5053885;28;20057;-44
2022/11/15 01:28:32;;;;;;;2.17;1.52;;;;;;;;;;5054288;28;20025;-49
2022/11/15 01:30:59;;;;;;;2.90;1.90;;;;;;;;;;5054254;28;20028;-44
2022/11/15 01:33:25;;;;;;;2.13;1.52;;;;;;;;;;5053575;28;20029;-44
2022/11/15 01:35:51;;;;;;;1.95;1.50;;;;;;;;;;5053448;28;20106;-44
2022/11/15 01:38:17;;;;;;;2.88;1.88;;;;;;;;;;5054847;28;20064;-44
2022/11/15 01:40:43;;;;;;;2.03;1.45;;;;;;;;;;5052708;28;20025;-44
2022/11/15 01:43:28;;;;;;;3.03;1.40;;;;;;;;;;5054482;28;20060;-44
2022/11/15 01:46:15;;;;;;;2.78;1.70;;;;;;;;;;5053271;28;20028;-44
2022/11/15 01:48:41;;;;;;;3.00;2.10;;;;;;;;;;5034604;28;20440;-44
2022/11/15 01:51:09;;;;;;;1.90;1.60;;;;;;;;;;5053722;28;20112;-45
2022/11/15 01:53:38;;;;;;;2.63;1.65;;;;;;;;;;5053556;28;20036;-44
2022/11/15 01:56:05;;;;;;;1.85;1.52;;;;;;;;;;5053839;28;20032;-44
2022/11/15 01:58:32;;;;;;;2.38;1.67;;;;;;;;;;5053595;28;20025;-48
2022/11/15 02:00:58;;;;;;;2.05;1.40;;;;;;;;;;5052985;28;20029;-43
2022/11/15 02:03:26;;;;;;;2.30;1.27;;;;;;;;;;5051776;28;20528;-44
2022/11/15 02:05:53;;;;;;;1.70;1.38;;;;;;;;;;5051275;28;20039;-44
2022/11/15 02:08:19;;;;;;;2.25;1.25;;;;;;;;;;5053754;28;20079;-44
2022/11/15 02:10:46;;;;;;;2.42;1.35;;;;;;;;;;5052538;28;20025;-44
2022/11/15 02:13:13;;;;;;;2.25;1.50;;;;;;;;;;5053772;28;20024;-44
2022/11/15 02:15:42;;;;;;;2.22;1.73;;;;;;;;;;5052352;28;20025;-44
2022/11/15 02:18:12;;;;;;;2.33;1.30;;;;;;;;;;5053699;28;20095;-43
2022/11/15 02:20:44;;;;;;;3.00;1.40;;;;;;;;;;5050977;28;20080;-44
2022/11/15 02:23:20;;;;;;;1.92;1.25;;;;;;;;;;5053633;28;20487;-44
2022/11/15 02:25:52;;;;;;;5.15;1.30;;;;;;;;;;5052234;28;20060;-44
2022/11/15 02:28:21;;;;;;;2.60;1.60;;;;;;;;;;5052993;28;20395;-44
2022/11/15 02:30:47;;;;;;;1.25;1.13;;;;;;;;;;5052166;28;20040;-43
2022/11/15 02:33:28;;;;;;;1.77;1.10;;;;;;;;;;5053435;28;20025;-44
2022/11/15 02:35:59;;;;;;;2.00;1.50;;;;;;;;;;5052036;28;20025;-44
2022/11/15 02:38:41;;;;;;;2.23;1.50;;;;;;;;;;5052331;28;20033;-44
2022/11/15 02:41:10;;;;;;;1.63;1.20;;;;;;;;;;5052890;28;20351;-44
2022/11/15 02:43:57;;;;;;;1.65;1.38;;;;;;;;;;5053078;28;20482;-45
2022/11/15 02:49:20;;;;;;;1.70;1.35;;;;;;;;;;5053510;28;20036;-44
2022/11/15 02:51:48;;;;;;;1.60;1.40;;;;;;;;;;5052014;28;20031;-44
2022/11/15 02:54:22;;;;;;;2.63;1.50;;;;;;;;;;5053264;28;20028;-44
2022/11/15 02:56:48;;;;;;;1.75;1.23;;;;;;;;;;5050438;28;20111;-44
2022/11/15 02:59:14;;;;;;;1.85;1.27;;;;;;;;;;5053131;28;20025;-44
2022/11/15 03:02:06;;;;;;;1.50;1.35;;;;;;;;;;5051436;28;20036;-44
2022/11/15 03:04:41;;;;;;;1.52;1.30;;;;;;;;;;5014649;28;20033;-50
2022/11/15 03:07:11;;;;;;;2.50;1.10;;;;;;;;;;5052899;28;20089;-44
2022/11/15 03:09:43;;;;;;;2.03;1.52;;;;;;;;;;5051443;28;20382;-44
2022/11/15 03:12:22;;;;;;;2.05;1.40;;;;;;;;;;5051487;28;20029;-44
2022/11/15 03:15:01;;;;;;;1.67;1.20;;;;;;;;;;5051240;28;20025;-43
2022/11/15 03:17:29;;;;;;;3.03;1.77;;;;;;;;;;5052491;28;20025;-44
2022/11/15 03:19:56;;;;;;;1.38;0.93;;;;;;;;;;5051041;28;20808;-44
2022/11/15 03:22:25;;;;;;;2.35;1.40;;;;;;;;;;5052714;28;20032;-44
2022/11/15 03:24:53;;;;;;;1.98;1.20;;;;;;;;;;5051498;28;20025;-44
2022/11/15 03:27:22;;;;;;;2.08;1.40;;;;;;;;;;5052320;28;20048;-43
2022/11/15 03:29:51;;;;;;;2.25;1.48;;;;;;;;;;5050114;28;20057;-43
2022/11/15 03:32:22;;;;;;;3.55;1.23;;;;;;;;;;5052262;28;20082;-44
2022/11/15 03:34:51;;;;;;;1.45;1.08;;;;;;;;;;5047298;28;20053;-44
2022/11/15 03:37:18;;;;;;;2.70;1.38;;;;;;;;;;5052064;28;20017;-44
2022/11/15 03:39:44;;;;;;;2.22;1.40;;;;;;;;;;5050429;28;20064;-44
2022/11/15 03:42:21;;;;;;;1.63;1.30;;;;;;;;;;5052464;28;20103;-44
2022/11/15 03:45:02;;;;;;;1.60;1.20;;;;;;;;;;5050957;28;20071;-44
2022/11/15 03:47:31;;;;;;;2.40;1.13;;;;;;;;;;5052188;28;20079;-44
2022/11/15 03:50:02;;;;;;;2.25;1.17;;;;;;;;;;5050053;28;20029;-44
2022/11/15 03:52:31;;;;;;;1.40;1.05;;;;;;;;;;5052499;28;20040;-43
2022/11/15 03:55:00;;;;;;;2.47;1.20;;;;;;;;;;5051359;28;20021;-44
2022/11/15 03:57:26;;;;;;;1.83;1.40;;;;;;;;;;5052122;28;20032;-44
2022/11/15 03:59:52;;;;;;;1.77;1.15;;;;;;;;;;5050816;28;20029;-44
2022/11/15 04:02:18;;;;;;;2.33;1.23;;;;;;;;;;5052046;28;20070;-44
2022/11/15 04:04:44;;;;;;;2.58;1.30;;;;;;;;;;5046559;28;20028;-45
2022/11/15 04:07:10;;;;;;;1.83;1.10;;;;;;;;;;5050351;28;20021;-44
2022/11/15 04:10:01;;;;;;;1.30;1.20;;;;;;;;;;5050713;28;20026;-49
2022/11/15 04:12:32;;;;;;;1.60;1.10;;;;;;;;;;5051365;28;20033;-44
2022/11/15 04:15:08;;;;;;;1.60;1.05;;;;;;;;;;5050445;28;20036;-44
2022/11/15 04:17:38;;;;;;;3.00;1.33;;;;;;;;;;5051245;28;20378;-49
2022/11/15 04:25:36;;;;;;;1.20;1.10;;;;;;;;;;5049606;28;20430;-44
2022/11/15 04:28:02;;;;;;;1.77;1.58;;;;;;;;;;5051455;28;20494;-43
2022/11/15 04:30:28;;;;;;;1.55;0.95;;;;;;;;;;5051335;28;20037;-44
2022/11/15 04:32:54;;;;;;;1.13;0.82;;;;;;;;;;5050607;28;20037;-44
2022/11/15 04:35:20;;;;;;;0.95;0.85;;;;;;;;;;5051079;28;20021;-44
2022/11/15 04:37:46;;;;;;;1.27;1.00;;;;;;;;;;5050884;28;20024;-44
2022/11/15 04:40:12;;;;;;;1.38;1.23;;;;;;;;;;5049522;28;20028;-44
2022/11/15 04:42:41;;;;;;;1.52;1.13;;;;;;;;;;5050992;28;20120;-44
2022/11/15 04:45:07;;;;;;;1.10;1.00;;;;;;;;;;5051392;28;20029;-44
2022/11/15 04:47:33;;;;;;;2.22;1.10;;;;;;;;;;5050863;28;20383;-49
2022/11/15 04:49:59;;;;;;;1.73;1.20;;;;;;;;;;5050747;28;20029;-45
2022/11/15 04:52:25;;;;;;;1.27;1.05;;;;;;;;;;5055175;28;20032;-44
2022/11/15 04:54:51;;;;;;;2.05;1.40;;;;;;;;;;5054405;28;20025;-44
2022/11/15 04:57:17;;;;;;;2.33;1.00;;;;;;;;;;5054181;28;20386;-44
2022/11/15 04:59:43;;;;;;;1.30;1.17;;;;;;;;;;5053889;28;20033;-44
2022/11/15 05:02:09;;;;;;;1.88;1.35;;;;;;;;;;5055007;28;20032;-44
2022/11/15 05:04:35;;;;;;;1.55;1.05;;;;;;;;;;5054124;28;20064;-48
2022/11/15 05:07:03;;;;;;;1.92;1.10;;;;;;;;;;5055019;28;20099;-44
2022/11/15 05:09:29;;;;;;;2.30;1.20;;;;;;;;;;5054733;28;20466;-44
2022/11/15 05:11:55;;;;;;;1.30;1.08;;;;;;;;;;5057086;28;20029;-44
2022/11/15 05:14:21;;;;;;;2.08;1.52;;;;;;;;;;5057966;28;20032;-44
2022/11/15 05:16:47;;;;;;;1.90;1.15;;;;;;;;;;5061370;28;20025;-44
2022/11/15 05:19:13;;;;;;;2.92;1.20;;;;;;;;;;5063686;28;20074;-44
2022/11/15 05:21:40;;;;;;;1.48;1.15;;;;;;;;;;5061817;28;20443;-45
2022/11/15 05:24:06;;;;;;;1.40;0.95;;;;;;;;;;5062764;28;20100;-44
2022/11/15 05:26:32;;;;;;;1.52;1.08;;;;;;;;;;5063519;28;20104;-48
2022/11/15 05:28:59;;;;;;;2.15;0.70;;;;;;;;;;5062349;28;20025;-44
2022/11/15 05:31:25;;;;;;;1.65;1.15;;;;;;;;;;5060598;28;20024;-44
2022/11/15 05:33:51;;;;;;;1.80;1.20;;;;;;;;;;5063246;28;20280;-44
2022/11/15 05:36:26;;;;;;;2.08;1.05;;;;;;;;;;5061906;28;20096;-44
2022/11/15 05:38:52;;;;;;;1.77;1.30;;;;;;;;;;5061096;28;20620;-43
2022/11/15 05:41:20;;;;;;;2.28;1.10;;;;;;;;;;5062193;28;20028;-43
2022/11/15 05:43:47;;;;;;;1.85;1.27;;;;;;;;;;5061682;28;20165;-43
2022/11/15 05:46:14;;;;;;;1.50;1.20;;;;;;;;;;5063558;28;20024;-44
2022/11/15 05:48:41;;;;;;;1.17;0.93;;;;;;;;;;5059101;28;20424;-46
2022/11/15 05:51:08;;;;;;;1.77;1.00;;;;;;;;;;5063091;28;20442;-44
2022/11/15 05:53:35;;;;;;;1.83;1.15;;;;;;;;;;5058695;28;20020;-49
2022/11/15 05:56:01;;;;;;;1.00;0.90;;;;;;;;;;5062404;28;20034;-44
2022/11/15 05:58:27;;;;;;;1.42;1.00;;;;;;;;;;5063519;28;20078;-43
2022/11/15 06:00:54;;;;;;;2.22;1.10;;;;;;;;;;5060378;28;20470;-42
2022/11/15 06:03:20;;;;;;;2.13;1.10;;;;;;;;;;5062048;28;20031;-46
2022/11/15 06:05:46;;;;;;;2.13;1.02;;;;;;;;;;5054833;28;20025;-43
2022/11/15 06:08:12;;;;;;;1.38;1.05;;;;;;;;;;5061161;28;20013;-44
2022/11/15 06:10:38;;;;;;;1.55;0.98;;;;;;;;;;5059389;28;20441;-44
2022/11/15 06:13:04;;;;;;;1.52;1.10;;;;;;;;;;5054255;28;20029;-43
2022/11/15 06:15:32;;;;;;;1.58;0.88;;;;;;;;;;5053303;28;20343;-47
2022/11/15 06:17:58;;;;;;;2.47;1.00;;;;;;;;;;5053496;28;20052;-44
2022/11/15 06:20:27;;;;;;;1.38;1.08;;;;;;;;;;5051295;28;20144;-44
2022/11/15 06:22:57;;;;;;;1.55;1.10;;;;;;;;;;5053166;28;20029;-44
2022/11/15 06:25:23;;;;;;;1.20;0.88;;;;;;;;;;5053257;28;20056;-44
2022/11/15 06:27:53;;;;;;;1.38;1.08;;;;;;;;;;5053074;28;20036;-44
2022/11/15 06:30:19;;;;;;;1.80;1.10;;;;;;;;;;5051539;28;20029;-44
2022/11/15 06:32:46;;;;;;;3.63;1.10;;;;;;;;;;5050277;28;20065;-44
2022/11/15 06:35:12;;;;;;;1.73;1.15;;;;;;;;;;5053077;28;20028;-44
2022/11/15 06:37:38;;;;;;;3.85;1.13;;;;;;;;;;5052673;28;20055;-44
2022/11/15 06:40:04;;;;;;;3.33;1.02;;;;;;;;;;5052534;28;20048;-44
2022/11/15 06:42:30;;;;;;;1.55;1.02;;;;;;;;;;5053450;28;20107;-44
2022/11/15 06:44:56;;;;;;;2.97;1.65;;;;;;;;;;5052182;28;20638;-44
2022/11/15 06:47:22;;;;;;;1.60;1.05;;;;;;;;;;5053696;28;20075;-44
2022/11/15 06:49:48;;;;;;;2.53;1.10;;;;;;;;;;5050718;28;20382;-44
2022/11/15 06:52:14;;;;;;;2.20;1.55;;;;;;;;;;5053459;28;20029;-45
2022/11/15 06:54:40;;;;;;;3.88;1.77;;;;;;;;;;5051890;28;20029;-44
2022/11/15 06:57:06;;;;;;;3.35;1.63;;;;;;;;;;5053172;28;20033;-45
2022/11/15 06:59:32;;;;;;;6.15;1.50;;;;;;;;;;5052567;28;20029;-48
2022/11/15 07:01:58;;;;;;;3.15;1.80;;;;;;;;;;5052240;28;20025;-44
2022/11/15 07:04:24;;;;;;;3.67;2.08;;;;;;;;;;5052998;28;20101;-44
2022/11/15 07:06:50;;;;;;;2.28;1.80;;;;;;;;;;5049705;28;20026;-45
2022/11/15 07:09:16;;;;;;;4.55;2.25;;;;;;;;;;5045858;28;20443;-44
2022/11/15 07:11:42;;;;;;;4.80;2.42;;;;;;;;;;5051361;28;20136;-44
2022/11/15 07:14:08;;;;;;;3.40;2.10;;;;;;;;;;5050417;28;20947;-48
2022/11/15 07:16:34;;;;;;;2.90;1.73;;;;;;;;;;5049508;28;20032;-48
2022/11/15 07:19:00;;;;;;;5.47;2.00;;;;;;;;;;5052699;28;20421;-44
2022/11/15 07:21:26;;;;;;;6.63;1.85;;;;;;;;;;5051472;28;20052;-43
2022/11/15 07:23:52;;;;;;;3.20;1.73;;;;;;;;;;5049298;28;20608;-44
2022/11/15 07:26:18;;;;;;;3.38;1.85;;;;;;;;;;5038314;28;20071;-44
2022/11/15 07:28:44;;;;;;;4.05;1.60;;;;;;;;;;5051093;28;20036;-44
2022/11/15 07:31:10;;;;;;;5.13;1.90;;;;;;;;;;5048187;28;20108;-45
2022/11/15 07:33:36;;;;;;;4.05;1.75;;;;;;;;;;5051236;28;20058;-45
2022/11/15 07:36:03;;;;;;;5.63;1.73;;;;;;;;;;5051336;28;20024;-46
2022/11/15 07:38:29;;;;;;;3.25;1.35;;;;;;;;;;5051498;28;20025;-44
2022/11/15 07:40:59;;;;;;;4.07;1.73;;;;;;;;;;5050390;28;20141;-44
2022/11/15 07:43:27;;;;;;;5.95;1.48;;;;;;;;;;5051524;28;20057;-44
2022/11/15 07:45:53;;;;;;;2.83;1.90;;;;;;;;;;5050379;28;20020;-44
2022/11/15 07:48:19;;;;;;;3.83;1.77;;;;;;;;;;5051272;28;20379;-44
2022/11/15 07:50:45;;;;;;;2.25;1.67;;;;;;;;;;5032307;28;20036;-45
2022/11/15 07:53:11;;;;;;;2.95;1.48;;;;;;;;;;5051587;28;20374;-47
2022/11/15 07:55:38;;;;;;;3.83;1.67;;;;;;;;;;5050110;28;20489;-44
2022/11/15 07:58:05;;;;;;;3.67;1.45;;;;;;;;;;5051575;28;20025;-44
2022/11/15 08:00:31;;;;;;;8.30;2.03;;;;;;;;;;5032417;28;20030;-49
2022/11/15 08:03:07;;;;;;;5.03;2.38;;;;;;;;;;5050965;28;20029;-44
2022/11/15 08:05:34;;;;;;;2.38;1.40;;;;;;;;;;5045428;28;20030;-49
2022/11/15 08:08:00;;;;;;;4.43;1.77;;;;;;;;;;5050590;28;20025;-44
2022/11/15 08:10:26;;;;;;;2.47;1.50;;;;;;;;;;5050075;28;20490;-44
2022/11/15 08:13:03;;;;;;;5.47;1.73;;;;;;;;;;5050479;28;20025;-44
2022/11/15 08:15:30;;;;;;;4.22;2.35;;;;;;;;;;5049702;28;20021;-44
2022/11/15 08:18:00;;;;;;;3.38;1.67;;;;;;;;;;5046494;28;20040;-44
2022/11/15 08:20:26;;;;;;;3.30;1.65;;;;;;;;;;5027673;28;20046;-45
2022/11/15 08:22:52;;;;;;;3.63;1.83;;;;;;;;;;5035858;28;20096;-44
2022/11/15 08:25:18;;;;;;;3.60;1.85;;;;;;;;;;5051796;28;20075;-46
2022/11/15 08:27:44;;;;;;;5.18;1.88;;;;;;;;;;5046769;28;20029;-45
2022/11/15 08:30:11;;;;;;;2.45;1.30;;;;;;;;;;5057213;28;20027;-45
2022/11/15 08:32:37;;;;;;;3.45;1.92;;;;;;;;;;5057069;28;20029;-46
2022/11/15 08:35:03;;;;;;;4.95;2.00;;;;;;;;;;5044739;28;20017;-45
2022/11/15 08:37:29;;;;;;;3.33;1.55;;;;;;;;;;5045205;28;20372;-45
2022/11/15 08:39:55;;;;;;;4.15;2.30;;;;;;;;;;5046399;28;20087;-45
2022/11/15 08:42:21;;;;;;;4.22;2.28;;;;;;;;;;5053499;28;20399;-45
2022/11/15 08:44:47;;;;;;;3.95;1.85;;;;;;;;;;5047316;28;20022;-45
2022/11/15 08:47:13;;;;;;;4.47;2.78;;;;;;;;;;5057870;28;20456;-45
2022/11/15 08:49:39;;;;;;;3.65;1.63;;;;;;;;;;5050498;28;20025;-45
2022/11/15 08:52:05;;;;;;;2.85;1.45;;;;;;;;;;5053106;28;20029;-45
2022/11/15 08:54:31;;;;;;;5.25;1.67;;;;;;;;;;5051798;28;20025;-49
2022/11/15 08:56:57;;;;;;;5.78;1.85;;;;;;;;;;5055537;28;20017;-45
2022/11/15 08:59:23;;;;;;;2.78;1.45;;;;;;;;;;5051172;28;20052;-44
2022/11/15 09:01:49;;;;;;;2.88;1.73;;;;;;;;;;5045708;28;20104;-44
2022/11/15 09:04:15;;;;;;;4.13;1.60;;;;;;;;;;5057597;28;20608;-45
2022/11/15 09:06:41;;;;;;;4.53;1.83;;;;;;;;;;5056480;28;20028;-45
2022/11/15 09:09:07;;;;;;;2.40;1.88;;;;;;;;;;5044168;28;20390;-44
2022/11/15 09:11:33;;;;;;;3.60;1.65;;;;;;;;;;5056441;28;20150;-49
2022/11/15 09:13:59;;;;;;;2.97;2.08;;;;;;;;;;5057314;28;20445;-44
2022/11/15 09:16:25;;;;;;;3.83;2.10;;;;;;;;;;5052546;28;20094;-44
2022/11/15 09:18:51;;;;;;;2.92;1.90;;;;;;;;;;5054708;28;20176;-44
2022/11/15 09:21:17;;;;;;;6.82;2.38;;;;;;;;;;5056370;28;20120;-44
2022/11/15 09:23:43;;;;;;;5.43;2.00;;;;;;;;;;5056715;28;20360;-47
2022/11/15 09:26:09;;;;;;;6.60;3.25;;;;;;;;;;5052336;28;20095;-44
2022/11/15 09:28:36;;;;;;;3.60;2.28;;;;;;;;;;5040902;28;20042;-48
2022/11/15 09:31:03;;;;;;;3.97;1.95;;;;;;;;;;5056388;28;20049;-44
2022/11/15 09:33:29;;;;;;;4.60;2.00;;;;;;;;;;5056959;28;20033;-44
2022/11/15 09:36:01;;;;;;;3.70;1.58;;;;;;;;;;5056060;28;20029;-44
2022/11/15 09:38:27;;;;;;;4.50;1.80;;;;;;;;;;5053227;28;20025;-44
2022/11/15 09:40:59;;;;;;;5.65;2.30;;;;;;;;;;5052139;28;20136;-44
2022/11/15 09:43:34;;;;;;;3.35;1.92;;;;;;;;;;5041211;28;20092;-44
2022/11/15 09:46:00;;;;;;;3.90;1.70;;;;;;;;;;5053335;28;20017;-44
2022/11/15 09:48:37;;;;;;;2.28;1.60;;;;;;;;;;5053964;28;20082;-44
2022/11/15 09:51:04;;;;;;;3.40;1.83;;;;;;;;;;5053413;28;20021;-45
2022/11/15 09:53:38;;;;;;;4.00;1.60;;;;;;;;;;5050480;28;20374;-44
2022/11/15 09:56:11;;;;;;;3.85;1.92;;;;;;;;;;5053239;28;20053;-44
2022/11/15 09:58:40;;;;;;;4.07;1.90;;;;;;;;;;5049084;28;20025;-44
2022/11/15 10:01:15;;;;;;;3.45;1.58;;;;;;;;;;5053115;28;20087;-44
2022/11/15 10:03:41;;;;;;;7.22;2.10;;;;;;;;;;5052771;28;20098;-44
2022/11/15 10:06:22;;;;;;;3.25;1.65;;;;;;;;;;5051996;28;20025;-49
2022/11/15 10:08:58;;;;;;;4.55;2.15;;;;;;;;;;5030510;28;20028;-44
2022/11/15 10:11:28;;;;;;;3.50;2.00;;;;;;;;;;5038502;28;20021;-44
2022/11/15 10:13:58;;;;;;;3.90;1.83;;;;;;;;;;5052518;28;20039;-44
2022/11/15 10:16:24;;;;;;;5.43;1.80;;;;;;;;;;5037928;28;20426;-44
2022/11/15 10:19:02;;;;;;;7.70;2.20;;;;;;;;;;5050219;28;20029;-44
2022/11/15 10:21:40;;;;;;;2.53;1.42;;;;;;;;;;5046229;28;20041;-45
2022/11/15 10:24:13;;;;;;;4.20;1.92;;;;;;;;;;5044746;28;20029;-44
2022/11/15 10:26:40;;;;;;;4.65;1.90;;;;;;;;;;5051889;28;20029;-44
2022/11/15 10:29:06;;;;;;;2.72;1.60;;;;;;;;;;5015539;28;20028;-44
2022/11/15 10:31:32;;;;;;;4.40;2.33;;;;;;;;;;5039294;28;20112;-49
2022/11/15 10:34:13;;;;;;;4.07;1.90;;;;;;;;;;5048351;28;20090;-44
2022/11/15 10:36:39;;;;;;;3.65;2.00;;;;;;;;;;5051877;28;20025;-45
2022/11/15 10:39:05;;;;;;;2.75;1.52;;;;;;;;;;5052874;28;20374;-44
2022/11/15 10:41:34;;;;;;;2.88;1.90;;;;;;;;;;5051717;28;20036;-49
2022/11/15 10:44:12;;;;;;;3.22;1.95;;;;;;;;;;5052962;28;20036;-45
2022/11/15 10:46:40;;;;;;;4.10;2.10;;;;;;;;;;5051464;28;20017;-45
2022/11/15 10:49:13;;;;;;;3.35;1.50;;;;;;;;;;5052206;28;20082;-44
2022/11/15 10:51:45;;;;;;;4.57;1.63;;;;;;;;;;5039533;28;20030;-47
2022/11/15 10:54:13;;;;;;;3.97;1.70;;;;;;;;;;5040146;28;20446;-44
2022/11/15 10:56:39;;;;;;;4.72;1.90;;;;;;;;;;5047478;28;20029;-44
2022/11/15 10:59:05;;;;;;;3.88;1.80;;;;;;;;;;5041078;28;20036;-44
2022/11/15 11:01:45;;;;;;;2.72;1.42;;;;;;;;;;5042564;28;20083;-49
2022/11/15 11:04:11;;;;;;;3.42;1.77;;;;;;;;;;5035895;28;20067;-44
2022/11/15 11:06:48;;;;;;;4.18;2.47;;;;;;;;;;5030789;28;20422;-45
2022/11/15 11:09:23;;;;;;;2.90;1.58;;;;;;;;;;5017595;28;20422;-45
2022/11/15 11:11:50;;;;;;;3.55;2.13;;;;;;;;;;5040397;28;20021;-44
2022/11/15 11:14:24;;;;;;;3.58;2.30;;;;;;;;;;5050253;28;20029;-45
2022/11/15 11:16:53;;;;;;;3.60;2.00;;;;;;;;;;5047247;28;20028;-45
2022/11/15 11:19:27;;;;;;;10.70;2.03;;;;;;;;;;5036675;28;20070;-44
2022/11/15 11:22:05;;;;;;;5.47;2.63;;;;;;;;;;5042128;28;20032;-43
2022/11/15 11:24:34;;;;;;;6.70;2.55;;;;;;;;;;5036056;28;20026;-48
2022/11/15 11:27:09;;;;;;;9.30;2.50;;;;;;;;;;5050295;28;20108;-43
2022/11/15 11:29:51;;;;;;;10.20;3.78;;;;;;;;;;5051070;28;20025;-48
2022/11/15 11:32:28;;;;;;;15.90;4.00;;;;;;;;;;5051798;28;20113;-44
2022/11/15 11:35:20;;;;;;;13.48;4.18;;;;;;;;;;5050709;28;20132;-44
2022/11/15 11:37:46;;;;;;;;;;;;;;;;;;5028804;28;20385;-44
2022/11/15 11:40:12;;;;;;;9.80;4.60;;;;;;;;;;5036294;28;19917;-46
2022/11/15 11:42:50;;;;;;;11.18;3.42;;;;;;;;;;5035905;28;20057;-44
2022/11/15 11:45:22;;;;;;;8.93;3.83;;;;;;;;;;5018723;28;20036;-44
2022/11/15 11:47:55;;;;;;;5.72;2.92;;;;;;;;;;5031482;28;20061;-44
2022/11/15 11:50:23;;;;;;;6.05;2.85;;;;;;;;;;5033793;28;20072;-45
2022/11/15 11:53:08;;;;;;;6.30;3.03;;;;;;;;;;5037001;28;20061;-45
2022/11/15 11:55:39;;;;;;;5.53;2.80;;;;;;;;;;5018427;28;20046;-49
2022/11/15 11:58:11;;;;;;;6.10;2.80;;;;;;;;;;5030391;28;20043;-45
2022/11/15 12:00:40;;;;;;;9.55;2.72;;;;;;;;;;5029996;28;20060;-46
2022/11/15 12:03:16;;;;;;;5.18;2.53;;;;;;;;;;5026544;28;20509;-45
2022/11/15 12:05:44;;;;;;;6.28;3.10;;;;;;;;;;5028685;28;20045;-44
2022/11/15 12:08:26;;;;;;;5.18;2.65;;;;;;;;;;5030188;28;20052;-45
2022/11/15 12:10:59;;;;;;;5.35;2.13;;;;;;;;;;5029249;28;20039;-44
2022/11/15 12:13:27;;;;;;;8.57;2.70;;;;;;;;;;5040984;28;20025;-45
2022/11/15 12:15:58;;;;;;;6.95;2.60;;;;;;;;;;5033865;28;20309;-45
2022/11/15 12:18:24;;;;;;;5.60;2.10;;;;;;;;;;5029960;28;20025;-45
2022/11/15 12:20:57;;;;;;;3.53;2.42;;;;;;;;;;5041959;28;20037;-45
2022/11/15 12:23:40;;;;;;;4.85;2.28;;;;;;;;;;5049292;28;20057;-47
2022/11/15 12:26:12;;;;;;;8.80;2.53;;;;;;;;;;5041048;28;20499;-45
2022/11/15 12:28:44;;;;;;;5.15;2.42;;;;;;;;;;5048007;28;20037;-45
2022/11/15 12:31:17;;;;;;;6.90;2.08;;;;;;;;;;5048849;28;20032;-45
2022/11/15 12:33:44;;;;;;;3.95;2.67;;;;;;;;;;5049700;28;20491;-42
2022/11/15 12:36:13;;;;;;;4.57;2.00;;;;;;;;;;5051701;28;20036;-45
2022/11/15 12:38:58;;;;;;;5.22;2.47;;;;;;;;;;5049713;28;20095;-43
2022/11/15 12:41:28;;;;;;;4.97;1.98;;;;;;;;;;5045384;28;20479;-44
2022/11/15 12:43:55;;;;;;;6.28;2.33;;;;;;;;;;5049467;28;20037;-43
2022/11/15 12:46:24;;;;;;;5.63;2.33;;;;;;;;;;5049890;28;20029;-43
2022/11/15 12:48:51;;;;;;;5.28;2.40;;;;;;;;;;5046981;28;20528;-43
2022/11/15 12:51:19;;;;;;;3.97;2.00;;;;;;;;;;5050106;28;20378;-43
2022/11/15 12:53:45;;;;;;;3.22;1.65;;;;;;;;;;5049473;28;20044;-44
2022/11/15 12:56:17;;;;;;;7.65;2.70;;;;;;;;;;5047708;28;20025;-43
2022/11/15 12:58:56;;;;;;;4.18;2.33;;;;;;;;;;5047182;28;20017;-44
2022/11/15 13:01:31;;;;;;;3.15;1.95;;;;;;;;;;5049381;28;20035;-43
2022/11/15 13:04:15;;;;;;;4.53;2.55;;;;;;;;;;5049779;28;20025;-44
2022/11/15 13:06:46;;;;;;;5.30;2.72;;;;;;;;;;5048118;28;20031;-44
2022/11/15 13:09:30;;;;;;;9.98;3.28;;;;;;;;;;5050312;28;20024;-43
2022/11/15 13:11:57;;;;;;;4.65;2.08;;;;;;;;;;5050361;28;20104;-43
2022/11/15 13:14:40;;;;;;;3.90;1.90;;;;;;;;;;5055271;28;20493;-43
2022/11/15 13:17:18;;;;;;;5.55;2.10;;;;;;;;;;5051444;28;20043;-46
2022/11/15 13:19:46;;;;;;;3.28;1.90;;;;;;;;;;5047334;28;20131;-43
2022/11/15 13:24:57;;;;;;;4.15;1.63;;;;;;;;;;5051387;28;20032;-44
2022/11/15 13:27:23;;;;;;;3.75;1.77;;;;;;;;;;5052928;28;20025;-43
2022/11/15 13:29:49;;;;;;;2.55;2.03;;;;;;;;;;5052025;28;20061;-43
2022/11/15 13:32:16;;;;;;;5.45;1.70;;;;;;;;;;5053721;28;20029;-44
2022/11/15 13:34:46;;;;;;;5.35;2.28;;;;;;;;;;5052221;28;20029;-43
2022/11/15 13:37:21;;;;;;;2.97;1.77;;;;;;;;;;5053686;28;20103;-43
2022/11/15 13:39:48;;;;;;;2.70;1.73;;;;;;;;;;5052175;28;20037;-43
2022/11/15 13:42:18;;;;;;;3.03;1.42;;;;;;;;;;5052868;28;20052;-43
2022/11/15 13:44:58;;;;;;;3.95;2.03;;;;;;;;;;5052862;28;20104;-43
2022/11/15 13:47:29;;;;;;;2.85;1.60;;;;;;;;;;5051271;28;20029;-44
2022/11/15 13:49:58;;;;;;;2.45;1.48;;;;;;;;;;5051528;28;20029;-43
2022/11/15 13:52:27;;;;;;;3.00;1.73;;;;;;;;;;5052931;28;20112;-43
2022/11/15 13:54:56;;;;;;;3.40;1.80;;;;;;;;;;5052279;28;20033;-43
2022/11/15 13:57:25;;;;;;;3.70;1.70;;;;;;;;;;5053247;28;20021;-43
2022/11/15 14:00:00;;;;;;;3.28;1.70;;;;;;;;;;5051713;28;20067;-43
2022/11/15 14:02:27;;;;;;;4.30;2.40;;;;;;;;;;5052577;28;20021;-43
2022/11/15 14:04:54;;;;;;;3.08;1.48;;;;;;;;;;5051394;28;20017;-43
2022/11/15 14:07:22;;;;;;;7.40;2.05;;;;;;;;;;5052716;28;20024;-43
2022/11/15 14:09:48;;;;;;;4.22;1.60;;;;;;;;;;5049142;28;20117;-43
2022/11/15 14:12:40;;;;;;;3.85;1.88;;;;;;;;;;5052196;28;20356;-43
2022/11/15 14:15:25;;;;;;;3.58;2.10;;;;;;;;;;5044609;28;20120;-43
2022/11/15 14:17:51;;;;;;;3.13;1.50;;;;;;;;;;5050029;28;20069;-43
2022/11/15 14:20:27;;;;;;;4.07;1.85;;;;;;;;;;5050857;28;20633;-45
2022/11/15 14:22:54;;;;;;;2.85;1.52;;;;;;;;;;5051155;28;20104;-43
2022/11/15 14:25:24;;;;;;;3.05;1.42;;;;;;;;;;5051871;28;20036;-43
2022/11/15 14:28:09;;;;;;;2.22;1.30;;;;;;;;;;5051977;28;20013;-44
2022/11/15 14:30:35;;;;;;;5.15;2.17;;;;;;;;;;5045629;28;20044;-46
2022/11/15 14:33:01;;;;;;;2.83;1.50;;;;;;;;;;5052029;28;20032;-42
2022/11/15 14:35:27;;;;;;;5.55;1.70;;;;;;;;;;5052055;28;20124;-44
2022/11/15 14:37:53;;;;;;;3.20;1.77;;;;;;;;;;5051339;28;20609;-42
2022/11/15 14:40:20;;;;;;;3.75;1.33;;;;;;;;;;5051828;28;20130;-43
2022/11/15 14:42:47;;;;;;;2.97;1.73;;;;;;;;;;5050461;28;20039;-43
2022/11/15 14:45:20;;;;;;;3.85;1.80;;;;;;;;;;5033161;28;20028;-42
2022/11/15 14:47:47;;;;;;;3.15;1.70;;;;;;;;;;5050604;28;20033;-43
2022/11/15 14:50:13;;;;;;;2.30;1.30;;;;;;;;;;5050974;28;20033;-42
2022/11/15 14:52:40;;;;;;;4.90;1.65;;;;;;;;;;5050529;28;20040;-42
2022/11/15 14:55:16;;;;;;;2.88;1.60;;;;;;;;;;5049840;28;20024;-42
2022/11/15 14:57:41;;;;;;;2.83;1.30;;;;;;;;;;5045622;28;20378;-43
2022/11/15 15:00:09;;;;;;;3.45;1.40;;;;;;;;;;5050044;28;20032;-43
2022/11/15 15:02:36;;;;;;;3.17;1.63;;;;;;;;;;5050041;28;20037;-47
2022/11/15 15:05:03;;;;;;;3.10;1.48;;;;;;;;;;5050778;28;20040;-42